New Champion — V7GG2 — position and weather

sailwx.info

Track history (hours):
 
Tides and Currents Weather Stations Pressure Air Temp Water Temp Dewpoint Dewpoint Depression Visibility Wind Speed Wind Dir Waves Ship Positions

New Champion

Last reported at 2015-May-09 18:31 UTC. Time now 2015-May-24 05:06 UTC.
Position N 01°60' E 102°14'.
Warning: this ship's position is 14 days out of date.

Length 228 m; draft 11.4 m.

Type: Ship (hazmat cat A). MMSI: 537985031.

Date/timePositionNaut miles runAvg speedWind from/ knotsBaromVisibWave heightAir tempDewpointWater temp
2015-May-09 18:31N 01°60' E 102°14'1312.9
2015-May-09 17:32N 01°54' E 102°25'1212.6
2015-May-09 16:33N 01°48' E 102°36'1712.4
2015-May-09 15:12N 01°42' E 102°51'7012.4
2015-May-09 09:33N 01°14' E 103°56'9 8.4
2015-May-09 08:30N 01°18' E 104°04'0 0.1
2015-May-09 07:21N 01°18' E 104°04'0 0.1
2015-May-09 06:15N 01°18' E 104°04'0 0.2
2015-May-09 05:27N 01°18' E 104°04'0 0.1
2015-May-09 04:33N 01°18' E 104°04'0 0.0
2015-May-09 03:33N 01°18' E 104°04'0 0.1
2015-May-09 02:33N 01°18' E 104°04'0 0.0
2015-May-09 01:33N 01°18' E 104°04'0 0.0
2015-May-08 22:27N 01°18' E 104°04'0 0.0
2015-May-08 21:27N 01°18' E 104°04'0 0.0
2015-May-08 20:33N 01°18' E 104°04'0 0.1
2015-May-08 19:33N 01°18' E 104°04'0 0.0
2015-May-08 18:27N 01°18' E 104°04'0 0.1
2015-May-08 17:27N 01°18' E 104°04'0 0.3
2015-May-08 16:33N 01°18' E 104°04'3 2.6
2015-May-08 15:30N 01°18' E 104°06'4 3.9
2015-May-08 14:31N 01°21' E 104°04'7 6.1
2015-May-08 13:24N 01°24' E 103°57'6 6.4
2015-May-08 12:30N 01°27' E 103°53'0 0.4
2015-May-08 11:33N 01°27' E 103°52'0 0.1
2015-May-08 10:31N 01°27' E 103°53'0 0.1
2015-May-08 09:33N 01°27' E 103°52'0 0.1
2015-May-08 08:30N 01°27' E 103°52'  
2015-May-01 01:19N 01°27' E 103°53'  
Track history (hours):
 
Tides and Currents Weather Stations Pressure Air Temp Water Temp Dewpoint Dewpoint Depression Visibility Wind Speed Wind Dir Waves Ship Positions

New Champion

Last reported at 2015-May-09 18:31 UTC. Time now 2015-May-24 05:06 UTC.
Position N 01°60' E 102°14'.
Warning: this ship's position is 14 days out of date.

Length 228 m; draft 11.4 m.

Type: Ship (hazmat cat A). MMSI: 537985031.

Date/timePositionNaut miles runAvg speedWind from/ knotsBaromVisibWave heightAir tempDewpointWater temp
2015-May-09 18:31N 01°60' E 102°14'1312.9
2015-May-09 17:32N 01°54' E 102°25'1212.6
2015-May-09 16:33N 01°48' E 102°36'1712.4
2015-May-09 15:12N 01°42' E 102°51'7012.4
2015-May-09 09:33N 01°14' E 103°56'9 8.4
2015-May-09 08:30N 01°18' E 104°04'0 0.1
2015-May-09 07:21N 01°18' E 104°04'0 0.1
2015-May-09 06:15N 01°18' E 104°04'0 0.2
2015-May-09 05:27N 01°18' E 104°04'0 0.1
2015-May-09 04:33N 01°18' E 104°04'0 0.0
2015-May-09 03:33N 01°18' E 104°04'0 0.1
2015-May-09 02:33N 01°18' E 104°04'0 0.0
2015-May-09 01:33N 01°18' E 104°04'0 0.0
2015-May-08 22:27N 01°18' E 104°04'0 0.0
2015-May-08 21:27N 01°18' E 104°04'0 0.0
2015-May-08 20:33N 01°18' E 104°04'0 0.1
2015-May-08 19:33N 01°18' E 104°04'0 0.0
2015-May-08 18:27N 01°18' E 104°04'0 0.1
2015-May-08 17:27N 01°18' E 104°04'0 0.3
2015-May-08 16:33N 01°18' E 104°04'3 2.6
2015-May-08 15:30N 01°18' E 104°06'4 3.9
2015-May-08 14:31N 01°21' E 104°04'7 6.1
2015-May-08 13:24N 01°24' E 103°57'6 6.4
2015-May-08 12:30N 01°27' E 103°53'0 0.4
2015-May-08 11:33N 01°27' E 103°52'0 0.1
2015-May-08 10:31N 01°27' E 103°53'0 0.1
2015-May-08 09:33N 01°27' E 103°52'0 0.1
2015-May-08 08:30N 01°27' E 103°52'  
2015-May-01 01:19N 01°27' E 103°53'  

Dump ship's entire track history